createdAt,value
2023-07-18T00:00:39.745Z,12.91
2023-07-18T00:01:39.760Z,12.87
2023-07-18T00:02:39.715Z,12.83
2023-07-18T00:03:39.712Z,12.79
2023-07-18T00:04:39.693Z,12.91
2023-07-18T00:05:39.653Z,12.80
2023-07-18T00:06:39.627Z,12.85
2023-07-18T00:07:39.636Z,12.67
2023-07-18T00:08:39.599Z,12.70
2023-07-18T00:09:39.614Z,12.70
2023-07-18T00:10:39.607Z,12.55
2023-07-18T00:11:39.594Z,12.55
2023-07-18T00:12:39.566Z,12.55
2023-07-18T00:13:39.595Z,12.53
2023-07-18T00:14:39.557Z,12.46
2023-07-18T00:15:39.577Z,12.47
2023-07-18T00:16:39.599Z,12.47
2023-07-18T00:17:39.549Z,12.43
2023-07-18T00:18:39.527Z,12.53
2023-07-18T00:19:39.517Z,12.47
2023-07-18T00:20:39.530Z,12.40
2023-07-18T00:21:39.505Z,12.46
2023-07-18T00:22:39.535Z,12.45
2023-07-18T00:23:39.487Z,12.40
2023-07-18T00:24:39.462Z,12.28
2023-07-18T00:25:39.492Z,12.36
2023-07-18T00:26:39.505Z,12.35
2023-07-18T00:27:39.453Z,12.21
2023-07-18T00:28:39.442Z,12.29
2023-07-18T00:29:39.471Z,12.29
2023-07-18T00:30:39.411Z,12.36
2023-07-18T00:31:39.532Z,12.27
2023-07-18T00:32:39.439Z,12.28
2023-07-18T00:33:39.422Z,12.21
2023-07-18T00:34:39.387Z,12.10
2023-07-18T00:35:39.425Z,12.13
2023-07-18T00:36:39.372Z,12.02
2023-07-18T00:37:39.396Z,12.06
2023-07-18T00:38:39.350Z,12.06
2023-07-18T00:39:39.369Z,12.06
2023-07-18T00:40:39.352Z,12.02
2023-07-18T00:41:39.342Z,12.02
2023-07-18T00:42:39.360Z,11.90
2023-07-18T00:43:39.339Z,11.90
2023-07-18T00:44:39.317Z,11.87
2023-07-18T00:45:39.348Z,11.95
2023-07-18T00:46:39.381Z,11.99
2023-07-18T00:47:39.322Z,12.03
2023-07-18T00:48:39.325Z,12.00
2023-07-18T00:49:39.293Z,12.02
2023-07-18T00:50:39.266Z,11.88
2023-07-18T00:51:39.269Z,11.95
2023-07-18T00:52:39.284Z,12.02
2023-07-18T00:53:39.277Z,12.02
2023-07-18T00:54:39.222Z,11.83
2023-07-18T00:55:39.242Z,11.88
2023-07-18T00:56:39.200Z,12.00
2023-07-18T00:57:39.218Z,11.91
2023-07-18T00:58:39.194Z,11.95
2023-07-18T00:59:39.191Z,11.97
2023-07-18T01:00:39.175Z,11.87
2023-07-18T01:01:39.197Z,11.87
2023-07-18T01:02:39.295Z,11.84
2023-07-18T01:03:39.196Z,11.83
2023-07-18T01:04:39.174Z,11.84
2023-07-18T01:05:39.169Z,11.77
2023-07-18T01:06:39.157Z,11.81
2023-07-18T01:07:39.139Z,11.83
2023-07-18T01:08:39.167Z,11.81
2023-07-18T01:09:39.138Z,11.78
2023-07-18T01:10:39.118Z,11.81
2023-07-18T01:11:39.097Z,11.72
2023-07-18T01:12:39.073Z,11.65
2023-07-18T01:13:39.099Z,11.72
2023-07-18T01:14:39.072Z,11.60
2023-07-18T01:15:39.169Z,11.75
2023-07-18T01:16:39.053Z,11.59
2023-07-18T01:17:39.116Z,11.62
2023-07-18T01:18:39.025Z,11.66
2023-07-18T01:19:39.051Z,11.60
2023-07-18T01:20:39.061Z,11.45
2023-07-18T01:21:39.071Z,11.51
2023-07-18T01:22:39.046Z,11.41
2023-07-18T01:23:39.020Z,11.41
2023-07-18T01:24:38.984Z,11.32
2023-07-18T01:25:39.000Z,11.27
2023-07-18T01:26:38.968Z,11.29
2023-07-18T01:27:38.991Z,11.30
2023-07-18T01:28:38.969Z,11.19
2023-07-18T01:29:38.964Z,11.17
2023-07-18T01:30:38.961Z,11.18
2023-07-18T01:31:38.994Z,11.14
2023-07-18T01:32:38.977Z,11.15
2023-07-18T01:33:38.977Z,11.12
2023-07-18T01:34:38.905Z,11.07
2023-07-18T01:35:38.922Z,11.00
2023-07-18T01:36:38.928Z,11.00
2023-07-18T01:37:38.904Z,10.97
2023-07-18T01:38:38.881Z,10.90
2023-07-18T01:39:38.875Z,10.84
2023-07-18T01:40:38.867Z,10.89
2023-07-18T01:41:38.889Z,10.81
2023-07-18T01:42:38.904Z,10.79
2023-07-18T01:43:38.876Z,10.75
2023-07-18T01:44:38.862Z,10.79
2023-07-18T01:45:38.852Z,10.74
2023-07-18T01:46:38.821Z,10.79
2023-07-18T01:47:38.929Z,10.78
2023-07-18T01:48:38.815Z,10.81
2023-07-18T01:49:38.795Z,10.72
2023-07-18T01:50:38.782Z,10.78
2023-07-18T01:51:38.807Z,10.81
2023-07-18T01:52:38.780Z,10.76
2023-07-18T01:53:38.792Z,10.82
2023-07-18T01:54:38.752Z,10.78
2023-07-18T01:55:38.756Z,10.78
2023-07-18T01:56:38.728Z,10.72
2023-07-18T01:57:38.738Z,10.81
2023-07-18T01:58:38.723Z,10.76
2023-07-18T01:59:38.737Z,10.78
2023-07-18T02:00:38.754Z,10.71
2023-07-18T02:01:38.715Z,10.81
2023-07-18T02:02:38.815Z,10.82
2023-07-18T02:03:38.734Z,10.81
2023-07-18T02:04:38.676Z,10.72
2023-07-18T02:05:38.677Z,10.71
2023-07-18T02:06:38.683Z,10.67
2023-07-18T02:07:38.666Z,10.68
2023-07-18T02:08:38.650Z,10.57
2023-07-18T02:09:38.647Z,10.57
2023-07-18T02:10:38.647Z,10.57
2023-07-18T02:11:38.664Z,10.57
2023-07-18T02:12:38.611Z,10.67
2023-07-18T02:13:38.626Z,10.61
2023-07-18T02:14:38.599Z,10.63
2023-07-18T02:15:38.600Z,10.61
2023-07-18T02:16:38.613Z,10.63
2023-07-18T02:17:38.601Z,10.67
2023-07-18T02:18:38.570Z,10.54
2023-07-18T02:19:38.567Z,10.49
2023-07-18T02:20:38.596Z,10.54
2023-07-18T02:21:38.572Z,10.51
2023-07-18T02:22:38.577Z,10.54
2023-07-18T02:23:38.577Z,10.57
2023-07-18T02:24:38.556Z,10.59
2023-07-18T02:25:38.531Z,10.63
2023-07-18T02:26:38.513Z,10.59
2023-07-18T02:27:38.520Z,10.51
2023-07-18T02:28:38.524Z,10.40
2023-07-18T02:29:38.548Z,10.42
2023-07-18T02:30:38.544Z,10.42
2023-07-18T02:31:38.523Z,10.51
2023-07-18T02:32:38.480Z,10.59
2023-07-18T02:33:38.490Z,10.53
2023-07-18T02:34:38.508Z,10.54
2023-07-18T02:35:38.475Z,10.59
2023-07-18T02:36:38.460Z,10.53
2023-07-18T02:37:38.463Z,10.48
2023-07-18T02:38:38.431Z,10.59
2023-07-18T02:39:38.463Z,10.44
2023-07-18T02:40:38.459Z,10.54
2023-07-18T02:41:38.449Z,10.49
2023-07-18T02:42:38.440Z,10.71
2023-07-18T02:43:38.415Z,10.44
2023-07-18T02:44:38.389Z,10.53
2023-07-18T02:45:38.417Z,10.44
2023-07-18T02:46:38.419Z,10.40
2023-07-18T02:47:38.467Z,10.31
2023-07-18T02:48:38.361Z,10.28
2023-07-18T02:49:38.362Z,10.13
2023-07-18T02:50:38.373Z,10.20
2023-07-18T02:51:38.350Z,10.22
2023-07-18T02:52:38.330Z,10.16
2023-07-18T02:53:38.343Z,10.30
2023-07-18T02:54:38.322Z,10.41
2023-07-18T02:55:38.327Z,10.40
2023-07-18T02:56:38.311Z,10.28
2023-07-18T02:57:38.397Z,10.16
2023-07-18T02:58:38.299Z,10.20
2023-07-18T02:59:38.310Z,10.07
2023-07-18T03:00:38.312Z,10.10
2023-07-18T03:01:38.300Z,10.07
2023-07-18T03:02:38.334Z,10.02
2023-07-18T03:03:38.374Z,10.09
2023-07-18T03:04:38.231Z,9.99
2023-07-18T03:05:38.238Z,10.05
2023-07-18T03:06:38.227Z,10.12
2023-07-18T03:07:38.217Z,10.15
2023-07-18T03:08:38.239Z,10.09
2023-07-18T03:09:38.214Z,10.15
2023-07-18T03:10:38.213Z,10.23
2023-07-18T03:11:38.205Z,10.13
2023-07-18T03:12:38.178Z,10.13
2023-07-18T03:13:38.189Z,10.20
2023-07-18T03:14:38.183Z,10.09
2023-07-18T03:15:38.178Z,10.13
2023-07-18T03:16:38.199Z,10.07
2023-07-18T03:17:38.203Z,10.12
2023-07-18T03:18:38.128Z,9.97
2023-07-18T03:19:38.171Z,9.98
2023-07-18T03:20:38.132Z,9.95
2023-07-18T03:21:38.142Z,9.99
2023-07-18T03:22:38.192Z,9.87
2023-07-18T03:23:38.125Z,9.98
2023-07-18T03:24:38.114Z,9.95
2023-07-18T03:25:38.103Z,9.92
2023-07-18T03:26:38.082Z,9.99
2023-07-18T03:27:38.081Z,9.86
2023-07-18T03:28:38.094Z,9.83
2023-07-18T03:29:38.095Z,9.73
2023-07-18T03:30:38.056Z,9.72
2023-07-18T03:31:38.080Z,9.59
2023-07-18T03:32:38.034Z,9.62
2023-07-18T03:33:38.036Z,9.72
2023-07-18T03:34:38.020Z,9.73
2023-07-18T03:35:38.078Z,9.58
2023-07-18T03:36:38.502Z,9.55
2023-07-18T03:37:38.009Z,9.51
2023-07-18T03:38:37.995Z,9.50
2023-07-18T03:39:37.997Z,9.51
2023-07-18T03:40:37.966Z,9.55
2023-07-18T03:41:38.016Z,9.62
2023-07-18T03:42:37.948Z,9.69
2023-07-18T03:43:37.973Z,9.74
2023-07-18T03:44:37.932Z,9.80
2023-07-18T03:45:37.955Z,9.82
2023-07-18T03:46:38.043Z,9.86
2023-07-18T03:47:37.995Z,9.87
2023-07-18T03:48:37.968Z,9.87
2023-07-18T03:49:37.914Z,9.94
2023-07-18T03:50:37.908Z,9.84
2023-07-18T03:51:38.149Z,9.89
2023-07-18T03:52:37.892Z,9.94
2023-07-18T03:53:37.929Z,9.98
2023-07-18T03:54:37.893Z,9.95
2023-07-18T03:55:37.887Z,10.07
2023-07-18T03:56:37.874Z,10.10
2023-07-18T03:57:37.866Z,10.26
2023-07-18T03:58:37.848Z,10.13
2023-07-18T03:59:37.859Z,10.35
2023-07-18T04:00:37.843Z,10.40
2023-07-18T04:01:37.890Z,10.68
2023-07-18T04:02:37.855Z,10.93
2023-07-18T04:03:37.827Z,11.07
2023-07-18T04:04:37.812Z,11.04
2023-07-18T04:05:37.801Z,11.44
2023-07-18T04:06:37.796Z,11.75
2023-07-18T04:07:37.812Z,12.21
2023-07-18T04:08:39.244Z,12.73
2023-07-18T04:09:37.791Z,12.94
2023-07-18T04:10:37.749Z,13.04
2023-07-18T04:11:37.761Z,13.28
2023-07-18T04:12:37.754Z,13.35
2023-07-18T04:13:37.751Z,13.59
2023-07-18T04:14:37.727Z,13.86
2023-07-18T04:15:37.742Z,14.10
2023-07-18T04:16:37.747Z,14.15
2023-07-18T04:17:37.994Z,14.20
2023-07-18T04:18:37.733Z,14.07
2023-07-18T04:19:37.733Z,14.26
2023-07-18T04:20:37.671Z,14.20
2023-07-18T04:21:37.676Z,13.49
2023-07-18T04:22:37.672Z,13.00
2023-07-18T04:23:37.676Z,12.80
2023-07-18T04:24:37.680Z,13.15
2023-07-18T04:25:37.651Z,13.31
2023-07-18T04:26:37.646Z,13.85
2023-07-18T04:27:37.670Z,14.26
2023-07-18T04:28:37.654Z,14.55
2023-07-18T04:29:37.644Z,14.99
2023-07-18T04:30:37.611Z,15.31
2023-07-18T04:31:37.614Z,15.36
2023-07-18T04:32:37.630Z,15.42
2023-07-18T04:33:37.685Z,15.43
2023-07-18T04:34:37.625Z,15.49
2023-07-18T04:35:37.578Z,15.46
2023-07-18T04:36:37.573Z,15.58
2023-07-18T04:37:37.566Z,15.70
2023-07-18T04:38:37.536Z,15.62
2023-07-18T04:39:37.564Z,15.68
2023-07-18T04:40:37.532Z,15.82
2023-07-18T04:41:49.398Z,15.91
2023-07-18T04:42:38.555Z,15.90
2023-07-18T04:43:37.510Z,15.88
2023-07-18T04:44:37.479Z,15.83
2023-07-18T04:45:37.499Z,15.79
2023-07-18T04:46:37.767Z,15.90
2023-07-18T04:47:37.617Z,15.67
2023-07-18T04:48:37.450Z,15.67
2023-07-18T04:49:37.475Z,15.95
2023-07-18T04:50:37.462Z,15.97
2023-07-18T04:51:37.466Z,16.23
2023-07-18T04:52:37.432Z,16.33
2023-07-18T04:53:37.436Z,16.31
2023-07-18T04:54:37.393Z,16.56
2023-07-18T04:55:37.396Z,16.86
2023-07-18T04:56:37.372Z,17.11
2023-07-18T04:57:37.406Z,17.36
2023-07-18T04:58:37.392Z,17.56
2023-07-18T04:59:37.365Z,17.48
2023-07-18T05:00:37.368Z,17.63
2023-07-18T05:01:37.365Z,17.46
2023-07-18T05:02:37.365Z,17.39
2023-07-18T05:03:48.230Z,17.19
2023-07-18T05:04:38.457Z,17.14
2023-07-18T05:05:37.315Z,17.19
2023-07-18T05:06:37.295Z,17.45
2023-07-18T05:07:37.317Z,17.70
2023-07-18T05:08:37.270Z,17.83
2023-07-18T05:09:37.303Z,18.01
2023-07-18T05:10:37.256Z,17.78
2023-07-18T05:11:37.277Z,17.82
2023-07-18T05:12:37.235Z,17.67
2023-07-18T05:13:37.272Z,17.46
2023-07-18T05:14:37.223Z,17.01
2023-07-18T05:15:37.284Z,17.38
2023-07-18T05:16:37.205Z,17.90
2023-07-18T05:17:37.263Z,17.80
2023-07-18T05:18:37.254Z,18.13
2023-07-18T05:19:37.201Z,18.43
2023-07-18T05:20:37.172Z,18.44
2023-07-18T05:21:37.173Z,18.33
2023-07-18T05:22:37.169Z,18.49
2023-07-18T05:23:37.162Z,18.50
2023-07-18T05:24:37.170Z,18.53
2023-07-18T05:25:40.435Z,18.58
2023-07-18T05:26:37.118Z,18.81
2023-07-18T05:27:37.148Z,18.78
2023-07-18T05:28:37.108Z,18.45
2023-07-18T05:29:37.141Z,18.73
2023-07-18T05:30:37.109Z,18.62
2023-07-18T05:31:37.207Z,18.49
2023-07-18T05:32:37.090Z,18.45
2023-07-18T05:33:37.103Z,18.59
2023-07-18T05:34:37.080Z,18.81
2023-07-18T05:35:37.056Z,18.58
2023-07-18T05:36:37.062Z,18.41
2023-07-18T05:37:37.069Z,18.23
2023-07-18T05:38:37.028Z,18.25
2023-07-18T05:39:37.033Z,18.88
2023-07-18T05:40:37.055Z,18.86
2023-07-18T05:41:37.017Z,18.71
2023-07-18T05:42:36.986Z,18.92
2023-07-18T05:43:37.001Z,18.90
2023-07-18T05:44:37.050Z,19.12
2023-07-18T05:45:37.007Z,19.45
2023-07-18T05:46:39.783Z,20.11
2023-07-18T05:47:38.240Z,20.48
2023-07-18T05:48:36.960Z,20.60
2023-07-18T05:49:36.967Z,20.04
2023-07-18T05:50:36.967Z,20.32
2023-07-18T05:51:36.939Z,20.29
2023-07-18T05:52:36.922Z,19.73
2023-07-18T05:53:36.915Z,19.66
2023-07-18T05:54:39.499Z,19.73
2023-07-18T05:55:36.920Z,19.92
2023-07-18T05:56:36.896Z,19.56
2023-07-18T05:57:36.907Z,19.64
2023-07-18T05:58:36.878Z,19.94
2023-07-18T05:59:36.916Z,19.73
2023-07-18T06:00:36.881Z,20.03
2023-07-18T06:01:36.923Z,20.18
2023-07-18T06:02:36.878Z,20.19
2023-07-18T06:03:36.964Z,20.16
2023-07-18T06:04:36.847Z,20.09
2023-07-18T06:05:36.857Z,20.51
2023-07-18T06:06:36.827Z,20.24
2023-07-18T06:07:36.846Z,20.41
2023-07-18T06:08:36.802Z,20.58
2023-07-18T06:09:36.805Z,20.39
2023-07-18T06:10:36.790Z,20.59
2023-07-18T06:11:36.806Z,20.92
2023-07-18T06:12:36.777Z,20.84
2023-07-18T06:13:36.826Z,20.88
2023-07-18T06:14:36.815Z,21.12
2023-07-18T06:15:36.773Z,21.30
2023-07-18T06:16:36.792Z,20.80
2023-07-18T06:17:36.813Z,20.72
2023-07-18T06:18:36.726Z,21.00
2023-07-18T06:19:36.765Z,21.27
2023-07-18T06:20:36.717Z,21.18
2023-07-18T06:21:36.750Z,21.42
2023-07-18T06:22:36.758Z,21.12
2023-07-18T06:23:36.720Z,21.51
2023-07-18T06:24:36.693Z,22.14
2023-07-18T06:25:36.726Z,21.32
2023-07-18T06:26:36.675Z,20.93
2023-07-18T06:27:36.719Z,21.25
2023-07-18T06:28:36.674Z,21.96
2023-07-18T06:29:36.681Z,22.43
2023-07-18T06:30:36.728Z,22.73
2023-07-18T06:31:36.787Z,22.38
2023-07-18T06:32:36.642Z,22.76
2023-07-18T06:33:36.652Z,22.72
2023-07-18T06:34:36.658Z,22.08
2023-07-18T06:35:36.631Z,21.21
2023-07-18T06:36:36.663Z,21.70
2023-07-18T06:37:36.614Z,22.47
2023-07-18T06:38:36.603Z,22.93
2023-07-18T06:39:36.633Z,23.25
2023-07-18T06:40:36.619Z,22.25
2023-07-18T06:41:36.600Z,21.70
2023-07-18T06:42:36.561Z,22.14
2023-07-18T06:43:36.570Z,22.07
2023-07-18T06:44:36.556Z,22.76
2023-07-18T06:45:36.588Z,23.28
2023-07-18T06:46:36.560Z,23.37
2023-07-18T06:47:36.610Z,23.17
2023-07-18T06:48:36.519Z,22.57
2023-07-18T06:49:36.539Z,20.77
2023-07-18T06:50:36.611Z,21.21
2023-07-18T06:51:36.530Z,22.14
2023-07-18T06:52:37.112Z,22.99
2023-07-18T06:53:36.507Z,23.43
2023-07-18T06:54:36.482Z,23.98
2023-07-18T06:55:36.490Z,23.76
2023-07-18T06:56:36.498Z,23.80
2023-07-18T06:57:36.487Z,23.88
2023-07-18T06:58:36.461Z,23.96
2023-07-18T06:59:36.497Z,23.93
2023-07-18T07:00:36.467Z,23.34
2023-07-18T07:01:36.515Z,22.66
2023-07-18T07:02:36.463Z,21.70
2023-07-18T07:03:36.498Z,21.11
2023-07-18T07:04:36.418Z,20.82
2023-07-18T07:05:36.461Z,21.88
2023-07-18T07:06:36.407Z,22.91
2023-07-18T07:07:36.418Z,23.73
2023-07-18T07:08:36.385Z,24.35
2023-07-18T07:09:36.398Z,24.77
2023-07-18T07:10:36.381Z,25.17
2023-07-18T07:11:36.425Z,24.92
2023-07-18T07:12:37.456Z,25.31
2023-07-18T07:13:36.394Z,25.50
2023-07-18T07:14:36.349Z,25.41
2023-07-18T07:15:36.394Z,25.16
2023-07-18T07:16:36.454Z,25.22
2023-07-18T07:17:36.385Z,25.55
2023-07-18T07:18:36.342Z,25.88
2023-07-18T07:19:36.352Z,26.28
2023-07-18T07:20:36.326Z,26.83
2023-07-18T07:21:36.441Z,27.02
2023-07-18T07:22:36.403Z,27.00
2023-07-18T07:23:36.324Z,26.96
2023-07-18T07:24:36.280Z,26.89
2023-07-18T07:25:36.286Z,27.12
2023-07-18T07:26:36.295Z,26.84
2023-07-18T07:27:36.274Z,27.05
2023-07-18T07:28:36.269Z,27.18
2023-07-18T07:29:36.253Z,27.64
2023-07-18T07:30:36.258Z,27.95
2023-07-18T07:31:36.275Z,28.14
2023-07-18T07:32:36.395Z,28.02
2023-07-18T07:33:37.499Z,28.39
2023-07-18T07:34:37.705Z,28.69
2023-07-18T07:35:36.212Z,28.26
2023-07-18T07:36:36.247Z,28.10
2023-07-18T07:37:36.211Z,28.00
2023-07-18T07:38:36.183Z,27.78
2023-07-18T07:39:36.221Z,27.29
2023-07-18T07:40:36.182Z,27.78
2023-07-18T07:41:36.180Z,27.89
2023-07-18T07:42:36.232Z,28.10
2023-07-18T07:43:36.165Z,28.49
2023-07-18T07:44:36.134Z,28.49
2023-07-18T07:45:36.192Z,28.60
2023-07-18T07:46:36.151Z,28.56
2023-07-18T07:47:36.164Z,28.70
2023-07-18T07:48:36.119Z,28.94
2023-07-18T07:49:36.128Z,29.27
2023-07-18T07:50:36.134Z,29.29
2023-07-18T07:51:36.155Z,29.36
2023-07-18T07:52:36.098Z,29.59
2023-07-18T07:53:36.121Z,29.63
2023-07-18T07:54:36.103Z,28.64
2023-07-18T07:55:36.091Z,26.71
2023-07-18T07:56:36.066Z,26.07
2023-07-18T07:57:36.100Z,25.99
2023-07-18T07:58:36.057Z,26.36
2023-07-18T07:59:36.052Z,26.97
2023-07-18T08:00:36.053Z,27.60
2023-07-18T08:01:36.074Z,27.54
2023-07-18T08:02:36.082Z,28.02
2023-07-18T08:03:36.048Z,28.27
2023-07-18T08:04:36.043Z,28.75
2023-07-18T08:05:36.033Z,28.93
2023-07-18T08:06:36.027Z,29.23
2023-07-18T08:07:35.996Z,29.01
2023-07-18T08:08:35.994Z,29.26
2023-07-18T08:09:35.983Z,29.53
2023-07-18T08:10:35.963Z,29.82
2023-07-18T08:11:35.961Z,29.79
2023-07-18T08:12:35.987Z,30.43
2023-07-18T08:13:35.970Z,30.99
2023-07-18T08:14:36.162Z,31.17
2023-07-18T08:15:35.982Z,30.61
2023-07-18T08:16:35.965Z,30.69
2023-07-18T08:17:35.965Z,30.80
2023-07-18T08:18:35.934Z,31.29
2023-07-18T08:19:35.916Z,31.27
2023-07-18T08:20:35.874Z,31.00
2023-07-18T08:21:35.915Z,29.71
2023-07-18T08:22:35.893Z,28.04
2023-07-18T08:23:35.879Z,28.54
2023-07-18T08:24:35.884Z,27.98
2023-07-18T08:25:35.901Z,28.05
2023-07-18T08:26:35.860Z,26.78
2023-07-18T08:27:35.864Z,25.47
2023-07-18T08:28:35.836Z,25.47
2023-07-18T08:29:35.889Z,25.70
2023-07-18T08:30:35.849Z,26.36
2023-07-18T08:31:35.873Z,26.81
2023-07-18T08:32:35.863Z,26.16
2023-07-18T08:33:35.816Z,25.83
2023-07-18T08:34:35.803Z,25.35
2023-07-18T08:35:35.834Z,25.60
2023-07-18T08:36:35.781Z,26.41
2023-07-18T08:37:35.807Z,26.71
2023-07-18T08:38:35.793Z,27.52
2023-07-18T08:39:35.792Z,27.14
2023-07-18T08:40:35.808Z,27.90
2023-07-18T08:41:35.761Z,28.81
2023-07-18T08:42:35.746Z,28.81
2023-07-18T08:43:35.776Z,29.08
2023-07-18T08:44:35.745Z,28.93
2023-07-18T08:45:35.758Z,28.39
2023-07-18T08:46:35.796Z,28.07
2023-07-18T08:47:35.782Z,27.54
2023-07-18T08:48:35.726Z,27.48
2023-07-18T08:49:36.727Z,28.35
2023-07-18T08:50:35.709Z,29.24
2023-07-18T08:51:35.705Z,29.79
2023-07-18T08:52:35.726Z,29.84
2023-07-18T08:53:35.697Z,29.59
2023-07-18T08:54:35.898Z,28.08
2023-07-18T08:55:35.730Z,27.35
2023-07-18T08:56:35.659Z,27.29
2023-07-18T08:57:35.680Z,27.75
2023-07-18T08:58:35.665Z,28.72
2023-07-18T08:59:35.681Z,28.85
2023-07-18T09:00:35.634Z,29.31
2023-07-18T09:01:35.660Z,28.60
2023-07-18T09:02:35.712Z,28.20
2023-07-18T09:03:35.662Z,28.84
2023-07-18T09:04:35.608Z,28.63
2023-07-18T09:05:35.637Z,26.97
2023-07-18T09:06:35.583Z,26.33
2023-07-18T09:07:35.601Z,26.93
2023-07-18T09:08:35.568Z,28.04
2023-07-18T09:09:35.590Z,27.82
2023-07-18T09:10:35.570Z,27.45
2023-07-18T09:11:35.611Z,26.43
2023-07-18T09:12:35.548Z,25.28
2023-07-18T09:13:35.555Z,24.85
2023-07-18T09:14:35.578Z,25.43
2023-07-18T09:15:35.555Z,26.47
2023-07-18T09:16:35.521Z,26.88
2023-07-18T09:17:35.683Z,27.68
2023-07-18T09:18:35.529Z,28.45
2023-07-18T09:19:35.526Z,28.54
2023-07-18T09:20:35.520Z,28.25
2023-07-18T09:21:35.536Z,27.48
2023-07-18T09:22:35.535Z,27.54
2023-07-18T09:23:35.508Z,28.48
2023-07-18T09:24:35.476Z,28.85
2023-07-18T09:25:35.512Z,29.61
2023-07-18T09:26:35.457Z,29.86
2023-07-18T09:27:35.483Z,27.10
2023-07-18T09:28:35.446Z,27.35
2023-07-18T09:29:35.456Z,27.70
2023-07-18T09:30:35.422Z,27.03
2023-07-18T09:31:35.485Z,27.64
2023-07-18T09:32:35.470Z,27.87
2023-07-18T09:33:35.416Z,28.56
2023-07-18T09:34:35.414Z,29.47
2023-07-18T09:35:35.449Z,30.21
2023-07-18T09:36:36.979Z,30.63
2023-07-18T09:37:35.416Z,30.80
2023-07-18T09:38:35.384Z,29.91
2023-07-18T09:39:35.405Z,28.88
2023-07-18T09:40:35.399Z,28.48
2023-07-18T09:41:35.427Z,27.40
2023-07-18T09:42:35.374Z,27.14
2023-07-18T09:43:36.727Z,26.95
2023-07-18T09:44:37.301Z,26.23
2023-07-18T09:45:35.343Z,25.90
2023-07-18T09:46:35.446Z,26.52
2023-07-18T09:47:35.375Z,27.48
2023-07-18T09:48:44.595Z,28.48
2023-07-18T09:49:40.795Z,28.91
2023-07-18T09:50:35.298Z,28.29
2023-07-18T09:51:35.334Z,28.26
2023-07-18T09:52:35.295Z,28.82
2023-07-18T09:53:35.312Z,28.22
2023-07-18T09:54:35.348Z,27.85
2023-07-18T09:55:35.300Z,27.68
2023-07-18T09:56:35.245Z,27.85
2023-07-18T09:57:35.277Z,28.72
2023-07-18T09:58:35.237Z,29.01
2023-07-18T09:59:35.248Z,27.93
2023-07-18T10:00:35.228Z,26.83
2023-07-18T10:01:35.290Z,26.06
2023-07-18T10:02:35.354Z,26.02
2023-07-18T10:03:35.282Z,26.99
2023-07-18T10:04:35.224Z,28.12
2023-07-18T10:05:35.251Z,29.05
2023-07-18T10:06:35.193Z,29.51
2023-07-18T10:07:35.200Z,29.53
2023-07-18T10:08:35.193Z,29.97
2023-07-18T10:09:35.187Z,28.11
2023-07-18T10:10:35.199Z,27.47
2023-07-18T10:11:35.208Z,28.41
2023-07-18T10:12:35.178Z,29.01
2023-07-18T10:13:35.211Z,28.14
2023-07-18T10:14:35.132Z,28.57
2023-07-18T10:15:35.151Z,29.42
2023-07-18T10:16:35.142Z,30.15
2023-07-18T10:17:35.339Z,30.62
2023-07-18T10:18:35.153Z,30.90
2023-07-18T10:19:35.121Z,31.14
2023-07-18T10:20:37.868Z,30.59
2023-07-18T10:21:35.116Z,28.23
2023-07-18T10:22:35.142Z,28.57
2023-07-18T10:23:35.091Z,29.49
2023-07-18T10:24:35.086Z,30.03
2023-07-18T10:25:35.067Z,30.51
2023-07-18T10:26:35.059Z,30.87
2023-07-18T10:27:35.050Z,30.63
2023-07-18T10:28:35.036Z,30.99
2023-07-18T10:29:35.044Z,30.94
2023-07-18T10:30:35.058Z,30.88
2023-07-18T10:31:35.070Z,31.17
2023-07-18T10:32:35.058Z,31.47
2023-07-18T10:33:35.014Z,31.36
2023-07-18T10:34:34.999Z,30.68
2023-07-18T10:35:35.037Z,30.70
2023-07-18T10:36:34.976Z,30.57
2023-07-18T10:37:35.021Z,30.59
2023-07-18T10:38:35.015Z,31.02
2023-07-18T10:39:34.977Z,31.25
2023-07-18T10:40:34.949Z,31.22
2023-07-18T10:41:34.984Z,31.15
2023-07-18T10:42:34.944Z,30.85
2023-07-18T10:43:34.952Z,30.72
2023-07-18T10:44:34.930Z,30.96
2023-07-18T10:45:35.004Z,30.70
2023-07-18T10:46:34.979Z,30.80
2023-07-18T10:47:34.960Z,31.25
2023-07-18T10:48:34.890Z,31.17
2023-07-18T10:49:34.921Z,30.84
2023-07-18T10:50:34.893Z,30.48
2023-07-18T10:51:34.904Z,30.35
2023-07-18T10:52:34.901Z,30.90
2023-07-18T10:53:34.930Z,31.17
2023-07-18T10:54:34.849Z,31.24
2023-07-18T10:55:34.887Z,31.36
2023-07-18T10:56:34.869Z,31.20
2023-07-18T10:57:34.898Z,31.52
2023-07-18T10:58:34.854Z,32.14
2023-07-18T10:59:34.841Z,31.94
2023-07-18T11:00:34.827Z,30.16
2023-07-18T11:01:34.854Z,29.68
2023-07-18T11:02:34.844Z,29.95
2023-07-18T11:03:34.865Z,30.53
2023-07-18T11:04:34.860Z,30.96
2023-07-18T11:05:34.807Z,30.90
2023-07-18T11:06:34.786Z,31.02
2023-07-18T11:07:34.817Z,30.97
2023-07-18T11:08:34.772Z,31.05
2023-07-18T11:09:34.814Z,30.40
2023-07-18T11:10:34.861Z,30.54
2023-07-18T11:11:34.805Z,30.55
2023-07-18T11:12:34.748Z,30.00
2023-07-18T11:13:34.789Z,30.18
2023-07-18T11:14:34.737Z,29.42
2023-07-18T11:15:34.729Z,28.44
2023-07-18T11:16:34.799Z,28.60
2023-07-18T11:17:34.739Z,28.69
2023-07-18T11:18:34.787Z,29.29
2023-07-18T11:19:34.705Z,29.38
2023-07-18T11:20:34.688Z,28.96
2023-07-18T11:21:34.702Z,28.88
2023-07-18T11:22:34.756Z,28.91
2023-07-18T11:23:34.677Z,29.05
2023-07-18T11:24:34.677Z,29.10
2023-07-18T11:25:34.674Z,29.50
2023-07-18T11:26:34.650Z,29.44
2023-07-18T11:27:34.669Z,29.29
2023-07-18T11:28:34.619Z,28.57
2023-07-18T11:29:34.643Z,28.39
2023-07-18T11:30:34.633Z,27.36
2023-07-18T11:31:40.777Z,27.48
2023-07-18T11:32:35.671Z,27.59
2023-07-18T11:33:34.616Z,28.32
2023-07-18T11:34:34.598Z,28.59
2023-07-18T11:35:34.623Z,28.72
2023-07-18T11:36:34.605Z,28.96
2023-07-18T11:37:41.545Z,29.23
2023-07-18T11:38:35.541Z,28.85
2023-07-18T11:39:34.584Z,28.91
2023-07-18T11:40:34.555Z,28.08
2023-07-18T11:41:34.555Z,27.32
2023-07-18T11:42:34.533Z,27.83
2023-07-18T11:43:34.540Z,27.36
2023-07-18T11:44:34.542Z,27.27
2023-07-18T11:45:34.525Z,27.64
2023-07-18T11:46:34.509Z,27.98
2023-07-18T11:47:34.614Z,28.08
2023-07-18T11:48:34.593Z,27.90
2023-07-18T11:49:34.524Z,28.17
2023-07-18T11:50:34.493Z,28.54
2023-07-18T11:51:34.522Z,28.97
2023-07-18T11:52:34.454Z,28.84
2023-07-18T11:53:34.501Z,28.84
2023-07-18T11:54:34.492Z,28.91
2023-07-18T11:55:34.477Z,28.78
2023-07-18T11:56:34.418Z,29.01
2023-07-18T11:57:34.475Z,29.24
2023-07-18T11:58:34.459Z,29.45
2023-07-18T11:59:34.474Z,29.59
2023-07-18T12:00:34.392Z,29.42
2023-07-18T12:01:36.384Z,29.14
2023-07-18T12:02:34.484Z,29.22
2023-07-18T12:03:34.514Z,28.98
2023-07-18T12:04:34.409Z,28.51
2023-07-18T12:05:34.410Z,28.45
2023-07-18T12:06:34.379Z,28.07
2023-07-18T12:07:34.398Z,26.90
2023-07-18T12:08:34.376Z,26.63
2023-07-18T12:09:34.346Z,26.65
2023-07-18T12:10:34.369Z,26.88
2023-07-18T12:11:34.335Z,27.07
2023-07-18T12:12:34.333Z,27.17
2023-07-18T12:13:34.336Z,27.86
2023-07-18T12:14:34.351Z,28.45
2023-07-18T12:15:37.131Z,29.04
2023-07-18T12:16:34.352Z,28.97
2023-07-18T12:17:34.357Z,29.19
2023-07-18T12:18:34.272Z,29.13
2023-07-18T12:19:34.296Z,29.31
2023-07-18T12:20:34.291Z,29.73
2023-07-18T12:21:34.315Z,29.59
2023-07-18T12:22:34.357Z,29.04
2023-07-18T12:23:34.253Z,29.14
2023-07-18T12:24:34.259Z,29.01
2023-07-18T12:25:34.264Z,29.01
2023-07-18T12:26:34.235Z,29.01
2023-07-18T12:27:34.259Z,29.22
2023-07-18T12:28:34.197Z,29.22
2023-07-18T12:29:34.237Z,29.36
2023-07-18T12:30:34.208Z,29.45
2023-07-18T12:31:34.295Z,29.44
2023-07-18T12:32:34.280Z,29.17
2023-07-18T12:33:34.277Z,29.23
2023-07-18T12:34:34.162Z,29.47
2023-07-18T12:35:34.180Z,29.57
2023-07-18T12:36:34.154Z,29.69
2023-07-18T12:37:34.159Z,29.65
2023-07-18T12:38:34.147Z,29.38
2023-07-18T12:39:34.148Z,28.35
2023-07-18T12:40:34.199Z,28.30
2023-07-18T12:41:34.166Z,28.89
2023-07-18T12:42:34.102Z,29.07
2023-07-18T12:43:34.144Z,29.07
2023-07-18T12:44:34.132Z,28.82
2023-07-18T12:45:34.119Z,28.81
2023-07-18T12:46:34.118Z,28.81
2023-07-18T12:47:34.172Z,28.88
2023-07-18T12:48:34.089Z,28.91
2023-07-18T12:50:34.106Z,27.85
2023-07-18T12:51:34.114Z,28.08
2023-07-18T12:52:34.065Z,28.15
2023-07-18T12:53:34.072Z,28.20
2023-07-18T12:54:34.037Z,28.79